sensor_id;sensor_type;location;lat;lon;timestamp;P1;durP1;ratioP1;P2;durP2;ratioP2
37785;SDS011;23625;48.784;9.336;2023-04-07T00:00:24;12.65;;;7.22;;
37785;SDS011;23625;48.784;9.336;2023-04-07T00:02:50;16.80;;;7.68;;
37785;SDS011;23625;48.784;9.336;2023-04-07T00:05:16;18.67;;;8.20;;
37785;SDS011;23625;48.784;9.336;2023-04-07T00:07:42;15.55;;;7.45;;
37785;SDS011;23625;48.784;9.336;2023-04-07T00:10:08;12.60;;;7.30;;
37785;SDS011;23625;48.784;9.336;2023-04-07T00:12:34;13.43;;;7.05;;
37785;SDS011;23625;48.784;9.336;2023-04-07T00:15:00;11.73;;;6.88;;
37785;SDS011;23625;48.784;9.336;2023-04-07T00:17:26;15.02;;;7.07;;
37785;SDS011;23625;48.784;9.336;2023-04-07T00:19:51;12.25;;;7.45;;
37785;SDS011;23625;48.784;9.336;2023-04-07T00:22:17;15.30;;;6.85;;
37785;SDS011;23625;48.784;9.336;2023-04-07T00:24:42;16.65;;;8.20;;
37785;SDS011;23625;48.784;9.336;2023-04-07T00:27:08;14.80;;;6.60;;
37785;SDS011;23625;48.784;9.336;2023-04-07T00:29:34;13.63;;;7.88;;
37785;SDS011;23625;48.784;9.336;2023-04-07T00:31:59;14.30;;;7.35;;
37785;SDS011;23625;48.784;9.336;2023-04-07T00:34:25;13.35;;;7.22;;
37785;SDS011;23625;48.784;9.336;2023-04-07T00:36:50;14.18;;;7.97;;
37785;SDS011;23625;48.784;9.336;2023-04-07T00:39:17;12.18;;;6.78;;
37785;SDS011;23625;48.784;9.336;2023-04-07T00:41:43;14.75;;;7.03;;
37785;SDS011;23625;48.784;9.336;2023-04-07T00:44:09;11.10;;;6.57;;
37785;SDS011;23625;48.784;9.336;2023-04-07T00:46:35;11.85;;;7.10;;
37785;SDS011;23625;48.784;9.336;2023-04-07T00:49:01;14.30;;;7.13;;
37785;SDS011;23625;48.784;9.336;2023-04-07T00:51:27;13.95;;;6.97;;
37785;SDS011;23625;48.784;9.336;2023-04-07T00:53:53;11.57;;;6.82;;
37785;SDS011;23625;48.784;9.336;2023-04-07T00:56:19;15.40;;;7.55;;
37785;SDS011;23625;48.784;9.336;2023-04-07T00:58:44;19.73;;;7.88;;
37785;SDS011;23625;48.784;9.336;2023-04-07T01:01:26;15.07;;;7.07;;
37785;SDS011;23625;48.784;9.336;2023-04-07T01:04:00;16.50;;;7.57;;
37785;SDS011;23625;48.784;9.336;2023-04-07T01:06:39;12.95;;;7.05;;
37785;SDS011;23625;48.784;9.336;2023-04-07T01:09:34;13.68;;;7.05;;
37785;SDS011;23625;48.784;9.336;2023-04-07T01:14:34;18.15;;;7.20;;
37785;SDS011;23625;48.784;9.336;2023-04-07T01:17:06;15.80;;;7.65;;
37785;SDS011;23625;48.784;9.336;2023-04-07T01:19:38;16.67;;;7.97;;
37785;SDS011;23625;48.784;9.336;2023-04-07T01:22:18;15.93;;;7.85;;
37785;SDS011;23625;48.784;9.336;2023-04-07T01:30:29;14.75;;;7.13;;
37785;SDS011;23625;48.784;9.336;2023-04-07T01:32:57;15.00;;;7.55;;
37785;SDS011;23625;48.784;9.336;2023-04-07T01:35:24;14.45;;;7.57;;
37785;SDS011;23625;48.784;9.336;2023-04-07T01:37:53;15.48;;;7.22;;
37785;SDS011;23625;48.784;9.336;2023-04-07T01:40:20;19.60;;;8.32;;
37785;SDS011;23625;48.784;9.336;2023-04-07T01:42:46;15.73;;;8.30;;
37785;SDS011;23625;48.784;9.336;2023-04-07T01:45:13;15.05;;;8.07;;
37785;SDS011;23625;48.784;9.336;2023-04-07T01:47:41;15.52;;;7.60;;
37785;SDS011;23625;48.784;9.336;2023-04-07T01:50:08;16.35;;;7.93;;
37785;SDS011;23625;48.784;9.336;2023-04-07T01:52:35;15.27;;;7.30;;
37785;SDS011;23625;48.784;9.336;2023-04-07T01:55:05;15.73;;;8.75;;
37785;SDS011;23625;48.784;9.336;2023-04-07T01:57:31;15.85;;;7.72;;
37785;SDS011;23625;48.784;9.336;2023-04-07T01:59:57;19.58;;;8.15;;
37785;SDS011;23625;48.784;9.336;2023-04-07T02:02:23;17.80;;;8.25;;
37785;SDS011;23625;48.784;9.336;2023-04-07T02:04:55;15.80;;;8.27;;
37785;SDS011;23625;48.784;9.336;2023-04-07T02:07:45;18.23;;;8.32;;
37785;SDS011;23625;48.784;9.336;2023-04-07T02:10:15;17.83;;;8.55;;
37785;SDS011;23625;48.784;9.336;2023-04-07T02:12:41;22.02;;;8.10;;
37785;SDS011;23625;48.784;9.336;2023-04-07T02:15:10;20.80;;;9.55;;
37785;SDS011;23625;48.784;9.336;2023-04-07T02:17:37;17.48;;;8.38;;
37785;SDS011;23625;48.784;9.336;2023-04-07T02:20:08;16.27;;;8.32;;
37785;SDS011;23625;48.784;9.336;2023-04-07T02:22:36;18.95;;;8.18;;
37785;SDS011;23625;48.784;9.336;2023-04-07T02:25:02;17.00;;;7.65;;
37785;SDS011;23625;48.784;9.336;2023-04-07T02:27:49;16.63;;;8.75;;
37785;SDS011;23625;48.784;9.336;2023-04-07T02:30:15;16.35;;;8.20;;
37785;SDS011;23625;48.784;9.336;2023-04-07T02:32:40;15.25;;;7.47;;
37785;SDS011;23625;48.784;9.336;2023-04-07T02:35:06;16.15;;;8.02;;
37785;SDS011;23625;48.784;9.336;2023-04-07T02:37:32;15.38;;;8.07;;
37785;SDS011;23625;48.784;9.336;2023-04-07T02:39:57;15.88;;;8.35;;
37785;SDS011;23625;48.784;9.336;2023-04-07T02:42:23;19.75;;;8.98;;
37785;SDS011;23625;48.784;9.336;2023-04-07T02:44:49;15.35;;;7.90;;
37785;SDS011;23625;48.784;9.336;2023-04-07T02:47:15;16.98;;;8.57;;
37785;SDS011;23625;48.784;9.336;2023-04-07T02:49:40;20.05;;;8.93;;
37785;SDS011;23625;48.784;9.336;2023-04-07T02:52:06;21.25;;;9.40;;
37785;SDS011;23625;48.784;9.336;2023-04-07T02:54:32;21.60;;;9.80;;
37785;SDS011;23625;48.784;9.336;2023-04-07T02:56:57;20.20;;;8.77;;
37785;SDS011;23625;48.784;9.336;2023-04-07T02:59:23;20.98;;;9.63;;
37785;SDS011;23625;48.784;9.336;2023-04-07T03:01:49;18.55;;;8.68;;
37785;SDS011;23625;48.784;9.336;2023-04-07T03:04:14;15.98;;;8.20;;
37785;SDS011;23625;48.784;9.336;2023-04-07T03:06:40;18.52;;;8.52;;
37785;SDS011;23625;48.784;9.336;2023-04-07T03:09:06;15.75;;;8.07;;
37785;SDS011;23625;48.784;9.336;2023-04-07T03:11:31;21.88;;;9.13;;
37785;SDS011;23625;48.784;9.336;2023-04-07T03:13:57;16.48;;;8.77;;
37785;SDS011;23625;48.784;9.336;2023-04-07T03:16:23;22.20;;;8.88;;
37785;SDS011;23625;48.784;9.336;2023-04-07T03:18:48;16.10;;;9.48;;
37785;SDS011;23625;48.784;9.336;2023-04-07T03:21:14;16.35;;;8.57;;
37785;SDS011;23625;48.784;9.336;2023-04-07T03:23:39;20.27;;;9.13;;
37785;SDS011;23625;48.784;9.336;2023-04-07T03:26:05;22.77;;;10.20;;
37785;SDS011;23625;48.784;9.336;2023-04-07T03:28:31;20.50;;;9.60;;
37785;SDS011;23625;48.784;9.336;2023-04-07T03:30:56;16.50;;;9.10;;
37785;SDS011;23625;48.784;9.336;2023-04-07T03:33:22;23.58;;;9.82;;
37785;SDS011;23625;48.784;9.336;2023-04-07T03:35:48;19.80;;;10.18;;
37785;SDS011;23625;48.784;9.336;2023-04-07T03:38:13;23.63;;;11.07;;
37785;SDS011;23625;48.784;9.336;2023-04-07T03:40:39;20.35;;;10.02;;
37785;SDS011;23625;48.784;9.336;2023-04-07T03:43:05;22.27;;;11.60;;
37785;SDS011;23625;48.784;9.336;2023-04-07T03:45:36;23.52;;;11.07;;
37785;SDS011;23625;48.784;9.336;2023-04-07T03:48:02;22.27;;;11.13;;
37785;SDS011;23625;48.784;9.336;2023-04-07T03:50:27;22.58;;;11.10;;
37785;SDS011;23625;48.784;9.336;2023-04-07T03:52:53;24.50;;;11.60;;
37785;SDS011;23625;48.784;9.336;2023-04-07T03:55:19;21.52;;;10.85;;
37785;SDS011;23625;48.784;9.336;2023-04-07T03:57:44;25.13;;;11.10;;
37785;SDS011;23625;48.784;9.336;2023-04-07T04:00:11;25.98;;;11.65;;
37785;SDS011;23625;48.784;9.336;2023-04-07T04:02:37;21.23;;;10.65;;
37785;SDS011;23625;48.784;9.336;2023-04-07T04:05:03;25.60;;;10.57;;
37785;SDS011;23625;48.784;9.336;2023-04-07T04:07:28;22.60;;;10.70;;
37785;SDS011;23625;48.784;9.336;2023-04-07T04:09:55;22.65;;;10.93;;
37785;SDS011;23625;48.784;9.336;2023-04-07T04:12:20;22.83;;;11.02;;
37785;SDS011;23625;48.784;9.336;2023-04-07T04:14:46;24.10;;;11.18;;
37785;SDS011;23625;48.784;9.336;2023-04-07T04:17:11;30.55;;;12.38;;
37785;SDS011;23625;48.784;9.336;2023-04-07T04:19:37;23.02;;;11.38;;
37785;SDS011;23625;48.784;9.336;2023-04-07T04:22:03;22.85;;;10.73;;
37785;SDS011;23625;48.784;9.336;2023-04-07T04:24:28;27.63;;;12.23;;
37785;SDS011;23625;48.784;9.336;2023-04-07T04:26:54;25.70;;;11.65;;
37785;SDS011;23625;48.784;9.336;2023-04-07T04:29:20;25.65;;;11.20;;
37785;SDS011;23625;48.784;9.336;2023-04-07T04:31:46;30.00;;;12.77;;
37785;SDS011;23625;48.784;9.336;2023-04-07T04:34:11;27.92;;;11.90;;
37785;SDS011;23625;48.784;9.336;2023-04-07T04:36:37;27.98;;;12.10;;
37785;SDS011;23625;48.784;9.336;2023-04-07T04:39:05;29.73;;;12.63;;
37785;SDS011;23625;48.784;9.336;2023-04-07T04:41:30;28.27;;;12.90;;
37785;SDS011;23625;48.784;9.336;2023-04-07T04:43:56;26.92;;;12.52;;
37785;SDS011;23625;48.784;9.336;2023-04-07T04:46:21;27.88;;;12.13;;
37785;SDS011;23625;48.784;9.336;2023-04-07T04:48:47;29.02;;;12.43;;
37785;SDS011;23625;48.784;9.336;2023-04-07T04:51:13;23.65;;;11.60;;
37785;SDS011;23625;48.784;9.336;2023-04-07T04:53:38;27.67;;;12.73;;
37785;SDS011;23625;48.784;9.336;2023-04-07T04:56:04;35.42;;;15.48;;
37785;SDS011;23625;48.784;9.336;2023-04-07T04:58:30;26.35;;;12.48;;
37785;SDS011;23625;48.784;9.336;2023-04-07T05:00:56;28.73;;;12.05;;
37785;SDS011;23625;48.784;9.336;2023-04-07T05:03:23;28.50;;;11.88;;
37785;SDS011;23625;48.784;9.336;2023-04-07T05:05:50;31.40;;;13.02;;
37785;SDS011;23625;48.784;9.336;2023-04-07T05:08:16;33.65;;;15.50;;
37785;SDS011;23625;48.784;9.336;2023-04-07T05:10:42;25.00;;;12.20;;
37785;SDS011;23625;48.784;9.336;2023-04-07T05:13:08;26.98;;;13.02;;
37785;SDS011;23625;48.784;9.336;2023-04-07T05:15:33;27.30;;;13.18;;
37785;SDS011;23625;48.784;9.336;2023-04-07T05:17:59;31.88;;;12.48;;
37785;SDS011;23625;48.784;9.336;2023-04-07T05:20:25;26.15;;;13.18;;
37785;SDS011;23625;48.784;9.336;2023-04-07T05:22:50;26.23;;;12.32;;
37785;SDS011;23625;48.784;9.336;2023-04-07T05:25:16;30.05;;;11.73;;
37785;SDS011;23625;48.784;9.336;2023-04-07T05:27:41;25.33;;;11.88;;
37785;SDS011;23625;48.784;9.336;2023-04-07T05:30:07;28.10;;;12.60;;
37785;SDS011;23625;48.784;9.336;2023-04-07T05:32:33;24.40;;;12.00;;
37785;SDS011;23625;48.784;9.336;2023-04-07T05:34:58;26.48;;;11.98;;
37785;SDS011;23625;48.784;9.336;2023-04-07T05:37:24;24.65;;;11.27;;
37785;SDS011;23625;48.784;9.336;2023-04-07T05:39:50;24.48;;;11.40;;
37785;SDS011;23625;48.784;9.336;2023-04-07T05:42:15;29.35;;;12.77;;
37785;SDS011;23625;48.784;9.336;2023-04-07T05:44:41;28.67;;;12.07;;
37785;SDS011;23625;48.784;9.336;2023-04-07T05:47:06;24.45;;;13.27;;
37785;SDS011;23625;48.784;9.336;2023-04-07T05:49:36;23.65;;;11.50;;
37785;SDS011;23625;48.784;9.336;2023-04-07T05:52:01;27.92;;;13.95;;
37785;SDS011;23625;48.784;9.336;2023-04-07T05:54:28;29.02;;;12.18;;
37785;SDS011;23625;48.784;9.336;2023-04-07T05:56:53;26.45;;;12.43;;
37785;SDS011;23625;48.784;9.336;2023-04-07T05:59:20;29.48;;;12.60;;
37785;SDS011;23625;48.784;9.336;2023-04-07T06:01:45;27.55;;;11.23;;
37785;SDS011;23625;48.784;9.336;2023-04-07T06:04:11;30.40;;;12.15;;
37785;SDS011;23625;48.784;9.336;2023-04-07T06:06:36;25.88;;;12.02;;
37785;SDS011;23625;48.784;9.336;2023-04-07T06:09:02;30.90;;;12.38;;
37785;SDS011;23625;48.784;9.336;2023-04-07T06:11:28;23.58;;;12.00;;
37785;SDS011;23625;48.784;9.336;2023-04-07T06:13:53;25.15;;;12.07;;
37785;SDS011;23625;48.784;9.336;2023-04-07T06:16:19;29.63;;;14.85;;
37785;SDS011;23625;48.784;9.336;2023-04-07T06:18:45;26.63;;;12.60;;
37785;SDS011;23625;48.784;9.336;2023-04-07T06:21:10;25.58;;;12.05;;
37785;SDS011;23625;48.784;9.336;2023-04-07T06:23:36;26.75;;;11.82;;
37785;SDS011;23625;48.784;9.336;2023-04-07T06:26:02;22.80;;;10.82;;
37785;SDS011;23625;48.784;9.336;2023-04-07T06:28:28;25.35;;;11.55;;
37785;SDS011;23625;48.784;9.336;2023-04-07T06:30:53;27.92;;;11.30;;
37785;SDS011;23625;48.784;9.336;2023-04-07T06:33:19;21.00;;;11.15;;
37785;SDS011;23625;48.784;9.336;2023-04-07T06:35:49;25.92;;;11.40;;
37785;SDS011;23625;48.784;9.336;2023-04-07T06:38:15;26.15;;;12.30;;
37785;SDS011;23625;48.784;9.336;2023-04-07T06:40:41;20.40;;;10.98;;
37785;SDS011;23625;48.784;9.336;2023-04-07T06:43:06;26.42;;;10.57;;
37785;SDS011;23625;48.784;9.336;2023-04-07T06:45:32;23.73;;;10.70;;
37785;SDS011;23625;48.784;9.336;2023-04-07T06:47:57;22.02;;;10.70;;
37785;SDS011;23625;48.784;9.336;2023-04-07T06:50:23;22.92;;;11.10;;
37785;SDS011;23625;48.784;9.336;2023-04-07T06:52:48;24.27;;;11.07;;
37785;SDS011;23625;48.784;9.336;2023-04-07T06:55:14;18.70;;;10.23;;
37785;SDS011;23625;48.784;9.336;2023-04-07T06:57:40;26.35;;;11.73;;
37785;SDS011;23625;48.784;9.336;2023-04-07T07:00:06;27.25;;;13.05;;
37785;SDS011;23625;48.784;9.336;2023-04-07T07:02:33;24.45;;;12.30;;
37785;SDS011;23625;48.784;9.336;2023-04-07T07:04:59;27.00;;;12.75;;
37785;SDS011;23625;48.784;9.336;2023-04-07T07:07:25;35.42;;;14.48;;
37785;SDS011;23625;48.784;9.336;2023-04-07T07:09:51;26.20;;;12.85;;
37785;SDS011;23625;48.784;9.336;2023-04-07T07:12:17;27.75;;;14.30;;
37785;SDS011;23625;48.784;9.336;2023-04-07T07:14:43;28.85;;;14.73;;
37785;SDS011;23625;48.784;9.336;2023-04-07T07:17:08;25.80;;;13.65;;
37785;SDS011;23625;48.784;9.336;2023-04-07T07:19:34;29.13;;;14.60;;
37785;SDS011;23625;48.784;9.336;2023-04-07T07:22:00;23.98;;;12.60;;
37785;SDS011;23625;48.784;9.336;2023-04-07T07:24:28;22.42;;;11.65;;
37785;SDS011;23625;48.784;9.336;2023-04-07T07:26:54;31.02;;;13.57;;
37785;SDS011;23625;48.784;9.336;2023-04-07T07:29:21;20.15;;;10.95;;
37785;SDS011;23625;48.784;9.336;2023-04-07T07:31:46;18.02;;;10.30;;
37785;SDS011;23625;48.784;9.336;2023-04-07T07:34:12;22.10;;;11.40;;
37785;SDS011;23625;48.784;9.336;2023-04-07T07:36:38;22.00;;;10.65;;
37785;SDS011;23625;48.784;9.336;2023-04-07T07:39:03;23.73;;;10.50;;
37785;SDS011;23625;48.784;9.336;2023-04-07T07:41:29;17.80;;;10.05;;
37785;SDS011;23625;48.784;9.336;2023-04-07T07:43:55;20.40;;;10.35;;
37785;SDS011;23625;48.784;9.336;2023-04-07T07:46:21;19.35;;;9.25;;
37785;SDS011;23625;48.784;9.336;2023-04-07T07:48:48;17.00;;;8.80;;
37785;SDS011;23625;48.784;9.336;2023-04-07T07:51:13;18.83;;;8.75;;
37785;SDS011;23625;48.784;9.336;2023-04-07T07:53:39;16.15;;;8.45;;
37785;SDS011;23625;48.784;9.336;2023-04-07T07:56:05;14.73;;;8.18;;
37785;SDS011;23625;48.784;9.336;2023-04-07T07:58:30;12.88;;;8.05;;
37785;SDS011;23625;48.784;9.336;2023-04-07T08:00:56;14.90;;;8.15;;
37785;SDS011;23625;48.784;9.336;2023-04-07T08:03:22;19.75;;;8.50;;
37785;SDS011;23625;48.784;9.336;2023-04-07T08:05:48;14.07;;;7.63;;
37785;SDS011;23625;48.784;9.336;2023-04-07T08:08:14;13.30;;;6.15;;
37785;SDS011;23625;48.784;9.336;2023-04-07T08:10:40;10.38;;;6.07;;
37785;SDS011;23625;48.784;9.336;2023-04-07T08:13:05;11.90;;;5.45;;
37785;SDS011;23625;48.784;9.336;2023-04-07T08:15:31;8.57;;;4.90;;
37785;SDS011;23625;48.784;9.336;2023-04-07T08:17:56;12.60;;;5.47;;
37785;SDS011;23625;48.784;9.336;2023-04-07T08:20:23;10.95;;;6.20;;
37785;SDS011;23625;48.784;9.336;2023-04-07T08:22:50;12.68;;;8.27;;
37785;SDS011;23625;48.784;9.336;2023-04-07T08:25:16;10.95;;;6.13;;
37785;SDS011;23625;48.784;9.336;2023-04-07T08:27:42;13.55;;;6.20;;
37785;SDS011;23625;48.784;9.336;2023-04-07T08:30:07;12.07;;;5.40;;
37785;SDS011;23625;48.784;9.336;2023-04-07T08:32:34;13.18;;;8.00;;
37785;SDS011;23625;48.784;9.336;2023-04-07T08:35:04;12.45;;;6.25;;
37785;SDS011;23625;48.784;9.336;2023-04-07T08:37:31;9.32;;;4.80;;
37785;SDS011;23625;48.784;9.336;2023-04-07T08:39:58;9.45;;;5.32;;
37785;SDS011;23625;48.784;9.336;2023-04-07T08:42:26;16.02;;;5.60;;
37785;SDS011;23625;48.784;9.336;2023-04-07T08:44:55;12.98;;;6.35;;
37785;SDS011;23625;48.784;9.336;2023-04-07T08:47:24;9.38;;;4.75;;
37785;SDS011;23625;48.784;9.336;2023-04-07T08:49:51;7.28;;;4.50;;
37785;SDS011;23625;48.784;9.336;2023-04-07T08:52:24;6.40;;;3.85;;
37785;SDS011;23625;48.784;9.336;2023-04-07T08:54:58;10.10;;;5.28;;
37785;SDS011;23625;48.784;9.336;2023-04-07T08:57:27;10.13;;;4.82;;
37785;SDS011;23625;48.784;9.336;2023-04-07T09:00:00;10.70;;;5.43;;
37785;SDS011;23625;48.784;9.336;2023-04-07T09:02:32;13.52;;;5.90;;
37785;SDS011;23625;48.784;9.336;2023-04-07T09:05:03;10.52;;;5.38;;
37785;SDS011;23625;48.784;9.336;2023-04-07T09:07:31;13.60;;;5.70;;
37785;SDS011;23625;48.784;9.336;2023-04-07T09:09:58;11.25;;;5.78;;
37785;SDS011;23625;48.784;9.336;2023-04-07T09:12:26;13.88;;;6.90;;
37785;SDS011;23625;48.784;9.336;2023-04-07T09:14:52;11.77;;;5.07;;
37785;SDS011;23625;48.784;9.336;2023-04-07T09:17:19;12.02;;;5.38;;
37785;SDS011;23625;48.784;9.336;2023-04-07T09:19:45;8.68;;;5.75;;
37785;SDS011;23625;48.784;9.336;2023-04-07T09:22:11;11.60;;;5.90;;
37785;SDS011;23625;48.784;9.336;2023-04-07T09:24:38;10.43;;;5.68;;
37785;SDS011;23625;48.784;9.336;2023-04-07T09:27:07;14.02;;;6.53;;
37785;SDS011;23625;48.784;9.336;2023-04-07T09:29:41;11.38;;;5.90;;
37785;SDS011;23625;48.784;9.336;2023-04-07T09:32:09;10.05;;;6.07;;
37785;SDS011;23625;48.784;9.336;2023-04-07T09:34:36;13.88;;;6.47;;
37785;SDS011;23625;48.784;9.336;2023-04-07T09:37:03;13.98;;;6.22;;
37785;SDS011;23625;48.784;9.336;2023-04-07T09:39:30;11.15;;;5.70;;
37785;SDS011;23625;48.784;9.336;2023-04-07T09:41:56;14.35;;;6.65;;
37785;SDS011;23625;48.784;9.336;2023-04-07T09:44:23;12.52;;;6.47;;
37785;SDS011;23625;48.784;9.336;2023-04-07T09:46:50;12.02;;;5.80;;
37785;SDS011;23625;48.784;9.336;2023-04-07T09:49:20;10.63;;;5.82;;
37785;SDS011;23625;48.784;9.336;2023-04-07T09:57:00;13.57;;;6.38;;
37785;SDS011;23625;48.784;9.336;2023-04-07T09:59:27;14.55;;;6.90;;
37785;SDS011;23625;48.784;9.336;2023-04-07T10:01:54;11.73;;;5.35;;
37785;SDS011;23625;48.784;9.336;2023-04-07T10:04:20;13.07;;;5.55;;
37785;SDS011;23625;48.784;9.336;2023-04-07T10:06:46;15.55;;;5.43;;
37785;SDS011;23625;48.784;9.336;2023-04-07T10:09:12;12.23;;;5.85;;
37785;SDS011;23625;48.784;9.336;2023-04-07T10:11:38;15.27;;;7.15;;
37785;SDS011;23625;48.784;9.336;2023-04-07T10:14:06;11.15;;;5.47;;
37785;SDS011;23625;48.784;9.336;2023-04-07T10:16:34;11.77;;;6.30;;
37785;SDS011;23625;48.784;9.336;2023-04-07T10:19:01;14.15;;;5.95;;
37785;SDS011;23625;48.784;9.336;2023-04-07T10:21:27;13.77;;;6.30;;
37785;SDS011;23625;48.784;9.336;2023-04-07T10:23:57;11.80;;;5.68;;
37785;SDS011;23625;48.784;9.336;2023-04-07T10:26:44;13.45;;;7.10;;
37785;SDS011;23625;48.784;9.336;2023-04-07T10:29:12;13.77;;;6.10;;
37785;SDS011;23625;48.784;9.336;2023-04-07T10:31:39;11.60;;;6.15;;
37785;SDS011;23625;48.784;9.336;2023-04-07T10:34:05;12.18;;;6.90;;
37785;SDS011;23625;48.784;9.336;2023-04-07T10:36:31;15.15;;;6.95;;
37785;SDS011;23625;48.784;9.336;2023-04-07T10:44:01;12.95;;;6.68;;
37785;SDS011;23625;48.784;9.336;2023-04-07T10:49:16;16.90;;;6.90;;
37785;SDS011;23625;48.784;9.336;2023-04-07T10:51:42;13.43;;;6.80;;
37785;SDS011;23625;48.784;9.336;2023-04-07T10:54:14;15.60;;;6.97;;
37785;SDS011;23625;48.784;9.336;2023-04-07T10:59:28;11.80;;;6.50;;
37785;SDS011;23625;48.784;9.336;2023-04-07T11:04:48;12.57;;;6.32;;
37785;SDS011;23625;48.784;9.336;2023-04-07T11:07:14;13.80;;;6.20;;
37785;SDS011;23625;48.784;9.336;2023-04-07T11:09:40;16.70;;;6.95;;
37785;SDS011;23625;48.784;9.336;2023-04-07T11:12:06;16.77;;;6.60;;
37785;SDS011;23625;48.784;9.336;2023-04-07T11:14:32;15.48;;;5.57;;
37785;SDS011;23625;48.784;9.336;2023-04-07T11:17:02;10.65;;;5.40;;
37785;SDS011;23625;48.784;9.336;2023-04-07T11:19:28;13.50;;;5.78;;
37785;SDS011;23625;48.784;9.336;2023-04-07T11:22:14;11.40;;;5.32;;
37785;SDS011;23625;48.784;9.336;2023-04-07T11:24:44;14.73;;;5.57;;
37785;SDS011;23625;48.784;9.336;2023-04-07T11:27:14;12.50;;;5.68;;
37785;SDS011;23625;48.784;9.336;2023-04-07T11:29:40;11.82;;;4.80;;
37785;SDS011;23625;48.784;9.336;2023-04-07T11:32:06;15.57;;;5.93;;
37785;SDS011;23625;48.784;9.336;2023-04-07T11:34:32;9.65;;;4.78;;
37785;SDS011;23625;48.784;9.336;2023-04-07T11:39:49;15.27;;;4.30;;
37785;SDS011;23625;48.784;9.336;2023-04-07T11:42:29;11.50;;;4.30;;
37785;SDS011;23625;48.784;9.336;2023-04-07T11:44:59;11.20;;;4.03;;
37785;SDS011;23625;48.784;9.336;2023-04-07T11:47:38;11.32;;;4.70;;
37785;SDS011;23625;48.784;9.336;2023-04-07T11:50:04;9.30;;;4.18;;
37785;SDS011;23625;48.784;9.336;2023-04-07T11:52:44;8.88;;;3.55;;
37785;SDS011;23625;48.784;9.336;2023-04-07T11:55:20;8.40;;;4.07;;
37785;SDS011;23625;48.784;9.336;2023-04-07T11:57:48;8.88;;;4.22;;
37785;SDS011;23625;48.784;9.336;2023-04-07T12:00:18;8.55;;;4.03;;
37785;SDS011;23625;48.784;9.336;2023-04-07T12:02:44;13.63;;;4.07;;
37785;SDS011;23625;48.784;9.336;2023-04-07T12:05:10;12.25;;;3.78;;
37785;SDS011;23625;48.784;9.336;2023-04-07T12:07:36;11.60;;;3.88;;
37785;SDS011;23625;48.784;9.336;2023-04-07T12:10:18;10.13;;;4.43;;
37785;SDS011;23625;48.784;9.336;2023-04-07T12:12:44;8.07;;;3.40;;
37785;SDS011;23625;48.784;9.336;2023-04-07T12:15:10;10.20;;;4.45;;
37785;SDS011;23625;48.784;9.336;2023-04-07T12:17:36;8.38;;;3.63;;
37785;SDS011;23625;48.784;9.336;2023-04-07T12:20:02;13.13;;;4.35;;
37785;SDS011;23625;48.784;9.336;2023-04-07T12:22:27;11.00;;;4.20;;
37785;SDS011;23625;48.784;9.336;2023-04-07T12:24:53;6.90;;;3.58;;
37785;SDS011;23625;48.784;9.336;2023-04-07T12:27:18;14.25;;;3.85;;
37785;SDS011;23625;48.784;9.336;2023-04-07T12:29:44;6.43;;;3.03;;
37785;SDS011;23625;48.784;9.336;2023-04-07T12:32:10;7.80;;;3.33;;
37785;SDS011;23625;48.784;9.336;2023-04-07T12:34:35;10.30;;;4.18;;
37785;SDS011;23625;48.784;9.336;2023-04-07T12:37:01;7.95;;;4.43;;
37785;SDS011;23625;48.784;9.336;2023-04-07T12:39:27;11.77;;;3.85;;
37785;SDS011;23625;48.784;9.336;2023-04-07T12:41:52;11.98;;;4.00;;
37785;SDS011;23625;48.784;9.336;2023-04-07T12:44:18;7.47;;;3.67;;
37785;SDS011;23625;48.784;9.336;2023-04-07T12:46:44;7.65;;;3.35;;
37785;SDS011;23625;48.784;9.336;2023-04-07T12:49:09;4.80;;;2.95;;
37785;SDS011;23625;48.784;9.336;2023-04-07T12:51:35;9.75;;;3.85;;
37785;SDS011;23625;48.784;9.336;2023-04-07T12:54:03;7.10;;;3.33;;
37785;SDS011;23625;48.784;9.336;2023-04-07T12:56:29;7.90;;;3.90;;
37785;SDS011;23625;48.784;9.336;2023-04-07T12:58:54;12.13;;;4.70;;
37785;SDS011;23625;48.784;9.336;2023-04-07T13:01:20;7.93;;;5.13;;
37785;SDS011;23625;48.784;9.336;2023-04-07T13:03:46;12.40;;;4.88;;
37785;SDS011;23625;48.784;9.336;2023-04-07T13:06:12;11.18;;;4.50;;
37785;SDS011;23625;48.784;9.336;2023-04-07T13:08:38;10.10;;;5.45;;
37785;SDS011;23625;48.784;9.336;2023-04-07T13:11:04;7.20;;;4.63;;
37785;SDS011;23625;48.784;9.336;2023-04-07T13:13:30;13.27;;;4.85;;
37785;SDS011;23625;48.784;9.336;2023-04-07T13:15:56;13.13;;;4.50;;
37785;SDS011;23625;48.784;9.336;2023-04-07T13:18:22;11.95;;;4.60;;
37785;SDS011;23625;48.784;9.336;2023-04-07T13:20:48;10.20;;;4.95;;
37785;SDS011;23625;48.784;9.336;2023-04-07T13:23:13;9.10;;;4.50;;
37785;SDS011;23625;48.784;9.336;2023-04-07T13:25:39;7.28;;;3.60;;
37785;SDS011;23625;48.784;9.336;2023-04-07T13:28:05;6.22;;;3.25;;
37785;SDS011;23625;48.784;9.336;2023-04-07T13:30:31;7.38;;;3.17;;
37785;SDS011;23625;48.784;9.336;2023-04-07T13:32:57;10.75;;;3.15;;
37785;SDS011;23625;48.784;9.336;2023-04-07T13:35:22;6.25;;;2.50;;
37785;SDS011;23625;48.784;9.336;2023-04-07T13:37:49;6.57;;;3.40;;
37785;SDS011;23625;48.784;9.336;2023-04-07T13:40:14;8.55;;;3.42;;
37785;SDS011;23625;48.784;9.336;2023-04-07T13:42:40;5.78;;;3.30;;
37785;SDS011;23625;48.784;9.336;2023-04-07T13:45:06;12.57;;;4.70;;
37785;SDS011;23625;48.784;9.336;2023-04-07T13:47:32;10.32;;;4.32;;
37785;SDS011;23625;48.784;9.336;2023-04-07T13:49:59;8.70;;;4.00;;
37785;SDS011;23625;48.784;9.336;2023-04-07T13:52:25;9.95;;;4.25;;
37785;SDS011;23625;48.784;9.336;2023-04-07T13:54:51;9.43;;;4.22;;
37785;SDS011;23625;48.784;9.336;2023-04-07T13:57:17;13.80;;;4.53;;
37785;SDS011;23625;48.784;9.336;2023-04-07T13:59:48;9.82;;;4.32;;
37785;SDS011;23625;48.784;9.336;2023-04-07T14:02:16;9.63;;;4.20;;
37785;SDS011;23625;48.784;9.336;2023-04-07T14:04:42;7.07;;;3.50;;
37785;SDS011;23625;48.784;9.336;2023-04-07T14:07:07;11.18;;;3.53;;
37785;SDS011;23625;48.784;9.336;2023-04-07T14:09:33;10.93;;;5.07;;
37785;SDS011;23625;48.784;9.336;2023-04-07T14:11:59;9.35;;;3.58;;
37785;SDS011;23625;48.784;9.336;2023-04-07T14:14:25;7.43;;;3.15;;
37785;SDS011;23625;48.784;9.336;2023-04-07T14:16:51;15.45;;;5.45;;
37785;SDS011;23625;48.784;9.336;2023-04-07T14:19:20;9.70;;;3.88;;
37785;SDS011;23625;48.784;9.336;2023-04-07T14:21:47;8.40;;;4.10;;
37785;SDS011;23625;48.784;9.336;2023-04-07T14:24:13;11.23;;;4.82;;
37785;SDS011;23625;48.784;9.336;2023-04-07T14:26:39;6.47;;;3.35;;
37785;SDS011;23625;48.784;9.336;2023-04-07T14:29:06;10.45;;;5.10;;
37785;SDS011;23625;48.784;9.336;2023-04-07T14:31:32;7.88;;;4.05;;
37785;SDS011;23625;48.784;9.336;2023-04-07T14:33:57;11.40;;;4.05;;
37785;SDS011;23625;48.784;9.336;2023-04-07T14:36:23;7.80;;;3.60;;
37785;SDS011;23625;48.784;9.336;2023-04-07T14:38:48;6.60;;;3.58;;
37785;SDS011;23625;48.784;9.336;2023-04-07T14:41:15;5.60;;;3.25;;
37785;SDS011;23625;48.784;9.336;2023-04-07T14:43:40;11.18;;;4.75;;
37785;SDS011;23625;48.784;9.336;2023-04-07T14:46:06;8.00;;;3.20;;
37785;SDS011;23625;48.784;9.336;2023-04-07T14:48:32;9.23;;;2.97;;
37785;SDS011;23625;48.784;9.336;2023-04-07T14:50:58;6.00;;;2.97;;
37785;SDS011;23625;48.784;9.336;2023-04-07T14:53:24;6.13;;;3.22;;
37785;SDS011;23625;48.784;9.336;2023-04-07T14:55:49;8.68;;;3.45;;
37785;SDS011;23625;48.784;9.336;2023-04-07T14:58:15;8.00;;;3.35;;
37785;SDS011;23625;48.784;9.336;2023-04-07T15:00:41;13.18;;;3.28;;